Time;durP1;ratioP1;P1;durP2;ratioP2;P2;SDS_P1;SDS_P2;PMS_P1;PMS_P2;Temp;Humidity;BMP_temperature;BMP_pressure;BME280_temperature;BME280_humidity;BME280_pressure;Samples;Min_cycle;Max_cycle;Signal;HPM_P1;HPM_P2
2024/02/17 00:00:05;;;;;;;9.00;8.10;;;13.70;82.90;;;;;;4946814;28;20037;-85
2024/02/17 00:02:31;;;;;;;9.68;7.90;;;13.70;82.90;;;;;;4950299;28;20040;-94
2024/02/17 00:04:57;;;;;;;9.77;8.05;;;13.70;82.90;;;;;;4949257;28;20039;-84
2024/02/17 00:07:23;;;;;;;9.73;8.25;;;13.70;82.80;;;;;;4949006;28;20024;-85
2024/02/17 00:09:48;;;;;;;9.95;8.50;;;13.60;82.80;;;;;;4934873;29;20490;-85
2024/02/17 00:12:17;;;;;;;11.05;8.65;;;13.70;82.90;;;;;;4936640;29;20090;-85
2024/02/17 00:14:43;;;;;;;9.38;8.38;;;13.60;82.90;;;;;;4934991;29;20129;-85
2024/02/17 00:17:09;;;;;;;8.57;7.47;;;13.60;82.80;;;;;;4950443;28;20082;-85
2024/02/17 00:19:35;;;;;;;9.25;7.95;;;13.60;82.90;;;;;;4936469;28;20518;-85
2024/02/17 00:22:01;;;;;;;10.48;8.35;;;13.60;82.90;;;;;;4951631;28;20049;-85
2024/02/17 00:24:27;;;;;;;9.43;8.07;;;13.60;82.80;;;;;;4937555;29;20063;-85
2024/02/17 00:26:53;;;;;;;9.13;7.65;;;13.60;82.90;;;;;;4953452;28;20059;-85
2024/02/17 00:29:20;;;;;;;11.40;8.40;;;13.50;82.80;;;;;;4952251;28;20027;-85
2024/02/17 00:31:48;;;;;;;9.27;8.23;;;13.60;82.90;;;;;;4937800;29;20035;-85
2024/02/17 00:34:15;;;;;;;9.52;8.48;;;13.50;82.80;;;;;;4939430;29;20031;-96
2024/02/17 00:36:41;;;;;;;9.95;8.25;;;13.50;82.80;;;;;;4937016;29;20027;-96
2024/02/17 00:39:09;;;;;;;9.73;8.38;;;13.50;82.80;;;;;;4953018;28;20028;-96
2024/02/17 00:41:36;;;;;;;10.68;8.77;;;13.50;82.90;;;;;;4937353;29;20058;-95
2024/02/17 00:44:02;;;;;;;9.88;8.40;;;13.50;82.90;;;;;;4938021;29;20039;-95
2024/02/17 00:46:30;;;;;;;9.32;7.82;;;13.50;82.90;;;;;;4932974;29;20042;-96
2024/02/17 00:48:56;;;;;;;8.70;7.53;;;13.50;82.90;;;;;;4932922;28;20031;-96
2024/02/17 00:51:23;;;;;;;10.13;8.13;;;13.50;82.90;;;;;;4932243;29;20035;-85
2024/02/17 00:53:49;;;;;;;11.18;8.07;;;13.50;82.90;;;;;;4951009;28;20031;-85
2024/02/17 00:56:15;;;;;;;9.30;7.65;;;13.40;83.50;;;;;;4936486;29;20035;-85
2024/02/17 00:58:41;;;;;;;9.40;8.32;;;13.40;82.80;;;;;;4931392;29;20027;-85
2024/02/17 01:01:09;;;;;;;9.32;7.97;;;13.40;82.80;;;;;;4952514;28;20130;-84
2024/02/17 01:03:35;;;;;;;9.35;8.13;;;13.40;83.50;;;;;;4952130;28;20050;-84
2024/02/17 01:06:03;;;;;;;10.23;7.85;;;13.40;82.80;;;;;;4934015;29;20032;-94
2024/02/17 01:08:29;;;;;;;10.10;8.27;;;13.40;82.80;;;;;;4939213;29;20508;-96
2024/02/17 01:10:58;;;;;;;10.25;7.72;;;13.40;82.90;;;;;;4938723;29;20435;-96
2024/02/17 01:13:23;;;;;;;9.77;7.80;;;13.40;82.80;;;;;;4933968;29;20043;-85
2024/02/17 01:15:49;;;;;;;8.57;7.45;;;13.40;82.80;;;;;;4951033;28;20078;-85
2024/02/17 01:18:15;;;;;;;9.65;8.38;;;13.40;82.80;;;;;;4946893;28;20070;-85
2024/02/17 01:20:41;;;;;;;9.38;7.80;;;13.40;82.90;;;;;;4934637;29;20043;-85
2024/02/17 01:23:07;;;;;;;9.38;7.97;;;13.30;82.80;;;;;;4951595;28;20027;-85
2024/02/17 01:25:33;;;;;;;9.88;8.40;;;13.30;82.80;;;;;;4938879;29;20134;-85
2024/02/17 01:27:59;;;;;;;10.18;8.48;;;13.40;82.90;;;;;;4936802;29;20098;-86
2024/02/17 01:30:24;;;;;;;9.07;7.80;;;13.30;82.80;;;;;;4933275;29;20058;-85
2024/02/17 01:32:50;;;;;;;10.35;8.35;;;13.30;82.80;;;;;;4968519;23;20055;-81
2024/02/17 01:35:16;;;;;;;9.43;8.05;;;13.30;82.90;;;;;;5070701;23;20066;-94
2024/02/17 01:37:48;;;;;;;9.10;7.60;;;13.30;82.80;;;;;;4976113;23;20354;-82
2024/02/17 01:40:17;;;;;;;9.40;8.15;;;13.30;82.80;;;;;;4918094;29;20042;-82
2024/02/17 01:42:45;;;;;;;9.73;7.95;;;13.30;82.80;;;;;;5322255;23;20063;-88
2024/02/17 01:45:11;;;;;;;10.05;8.10;;;13.30;82.80;;;;;;4912437;29;20147;-82
2024/02/17 01:47:38;;;;;;;11.57;8.55;;;13.30;82.80;;;;;;5347652;23;20508;-88
2024/02/17 01:50:05;;;;;;;9.50;8.15;;;13.30;82.80;;;;;;4931302;29;20423;-89
2024/02/17 01:52:33;;;;;;;10.02;7.35;;;13.30;82.80;;;;;;4957441;23;20083;-88
2024/02/17 01:55:01;;;;;;;10.25;8.07;;;13.30;82.90;;;;;;5027911;23;20071;-83
2024/02/17 01:57:29;;;;;;;8.95;7.88;;;13.30;82.90;;;;;;4930252;29;20016;-90
2024/02/17 01:59:57;;;;;;;9.25;7.70;;;13.30;82.90;;;;;;4930945;29;20433;-83
2024/02/17 02:02:24;;;;;;;10.65;8.25;;;13.30;83.50;;;;;;5133023;23;20055;-96
2024/02/17 02:04:53;;;;;;;10.15;8.15;;;13.30;82.90;;;;;;4953873;23;20090;-82
2024/02/17 02:07:30;;;;;;;;;;;;;;;;;;;;;
2024/02/17 02:10:14;;;;;;;10.18;8.50;;;13.30;82.90;;;;;;5051958;23;21565;-92
2024/02/17 02:12:41;;;;;;;9.77;7.82;;;13.20;82.80;;;;;;4921628;28;20054;-82
2024/02/17 02:15:10;;;;;;;10.43;8.63;;;13.20;82.80;;;;;;5019468;23;20415;-96
2024/02/17 02:17:41;;;;;;;10.15;8.80;;;13.20;82.90;;;;;;4961714;28;20035;-89
2024/02/17 02:20:10;;;;;;;10.23;8.20;;;13.20;82.90;;;;;;4955713;28;20114;-80
2024/02/17 02:22:56;;;;;;;9.95;7.90;;;13.20;82.90;;;;;;4953292;28;20041;-81
2024/02/17 02:25:27;;;;;;;10.50;8.65;;;13.20;82.90;;;;;;4940791;28;20199;-96
2024/02/17 02:27:54;;;;;;;10.60;7.82;;;13.20;82.90;;;;;;4923920;28;20658;-81
2024/02/17 02:30:25;;;;;;;10.32;8.27;;;13.20;82.90;;;;;;4939246;28;20045;-90
2024/02/17 02:32:57;;;;;;;10.88;8.68;;;13.20;82.90;;;;;;4956163;28;20047;-87
2024/02/17 02:35:23;;;;;;;11.02;8.70;;;13.20;82.90;;;;;;4936729;28;21705;-82
2024/02/17 02:37:49;;;;;;;11.95;9.10;;;13.20;82.90;;;;;;4962040;28;20594;-91
2024/02/17 02:40:16;;;;;;;10.50;8.77;;;13.20;82.90;;;;;;4970912;28;20038;-81
2024/02/17 02:42:41;;;;;;;11.90;8.77;;;13.20;82.90;;;;;;4930886;28;20542;-82
2024/02/17 02:45:08;;;;;;;9.60;7.75;;;13.10;82.90;;;;;;4937699;28;20041;-82
2024/02/17 02:47:34;;;;;;;11.60;8.82;;;13.20;82.90;;;;;;4949988;28;20054;-82
2024/02/17 02:50:00;;;;;;;10.88;8.77;;;13.20;83.00;;;;;;4932440;28;20089;-95
2024/02/17 02:52:26;;;;;;;12.10;9.27;;;13.10;82.90;;;;;;4955983;28;20072;-81
2024/02/17 02:54:52;;;;;;;10.50;8.00;;;13.10;82.90;;;;;;4936373;29;20594;-82
2024/02/17 02:57:18;;;;;;;11.82;9.35;;;13.10;82.90;;;;;;4950738;28;20039;-95
2024/02/17 02:59:46;;;;;;;11.30;8.75;;;13.10;82.90;;;;;;4954169;28;20399;-81
2024/02/17 03:02:12;;;;;;;11.07;8.25;;;13.10;82.90;;;;;;4951444;28;20045;-81
2024/02/17 03:04:38;;;;;;;11.73;9.05;;;13.10;82.90;;;;;;4962360;28;20023;-81
2024/02/17 03:07:22;;;;;;;11.68;8.75;;;13.10;82.90;;;;;;4952423;28;20023;-90
2024/02/17 03:09:48;;;;;;;11.75;8.82;;;13.10;82.90;;;;;;4971716;28;20031;-87
2024/02/17 03:12:30;;;;;;;12.32;9.85;;;13.10;82.90;;;;;;4959286;28;20029;-90
2024/02/17 03:15:01;;;;;;;11.60;8.23;;;13.10;83.00;;;;;;4968007;28;20091;-95
2024/02/17 03:17:28;;;;;;;12.00;8.77;;;13.10;83.00;;;;;;4952572;28;20039;-90
2024/02/17 03:19:55;;;;;;;10.68;8.73;;;13.10;83.60;;;;;;4959230;28;20038;-87
2024/02/17 03:22:21;;;;;;;11.25;9.15;;;13.10;83.00;;;;;;4957656;28;20110;-81
2024/02/17 03:24:47;;;;;;;10.40;8.88;;;13.10;83.00;;;;;;4970370;28;20045;-81
2024/02/17 03:27:39;;;;;;;11.00;8.80;;;13.10;83.00;;;;;;4989660;28;20050;-90
2024/02/17 03:30:07;;;;;;;11.45;9.02;;;13.00;83.00;;;;;;4949979;28;20032;-87
2024/02/17 03:32:34;;;;;;;11.07;8.75;;;13.00;82.90;;;;;;4936415;28;20538;-88
2024/02/17 03:35:03;;;;;;;11.40;9.05;;;13.00;82.90;;;;;;4931068;28;20062;-88
2024/02/17 03:37:31;;;;;;;11.93;9.68;;;13.00;83.00;;;;;;4963261;28;20114;-82
2024/02/17 03:39:58;;;;;;;10.50;8.80;;;13.00;83.00;;;;;;4941225;28;20035;-96
2024/02/17 03:42:24;;;;;;;10.52;8.65;;;13.00;83.00;;;;;;4952103;28;20031;-82
2024/02/17 03:44:50;;;;;;;11.45;9.10;;;13.00;82.90;;;;;;4933251;29;20087;-94
2024/02/17 03:47:16;;;;;;;10.75;8.50;;;13.00;83.00;;;;;;4951839;28;20031;-82
2024/02/17 03:49:53;;;;;;;11.70;9.15;;;13.00;83.00;;;;;;4939236;28;20566;-89
2024/02/17 03:52:21;;;;;;;10.95;9.23;;;13.00;83.00;;;;;;4969979;28;20065;-95
2024/02/17 03:55:14;;;;;;;12.05;9.27;;;13.00;83.00;;;;;;4957565;28;20029;-90
2024/02/17 03:57:40;;;;;;;10.60;8.38;;;13.00;83.00;;;;;;4936974;28;20035;-96
2024/02/17 04:00:13;;;;;;;10.95;8.85;;;13.00;83.00;;;;;;4944126;28;20022;-96
2024/02/17 04:02:39;;;;;;;11.30;8.93;;;13.00;83.00;;;;;;4968751;28;20022;-82
2024/02/17 04:05:07;;;;;;;11.40;9.15;;;13.00;83.00;;;;;;4957154;28;20041;-81
2024/02/17 04:07:34;;;;;;;11.88;9.15;;;13.00;83.00;;;;;;4959414;28;20496;-87
2024/02/17 04:10:00;;;;;;;12.10;9.25;;;13.00;83.00;;;;;;4973252;28;20487;-88
2024/02/17 04:12:26;;;;;;;11.25;9.15;;;13.00;83.00;;;;;;4959363;28;20388;-82
2024/02/17 04:14:52;;;;;;;11.57;9.38;;;13.00;83.00;;;;;;4964907;28;20038;-91
2024/02/17 04:17:18;;;;;;;11.73;8.85;;;13.00;83.00;;;;;;4959701;28;20022;-96
2024/02/17 04:19:44;;;;;;;11.32;9.15;;;13.00;83.00;;;;;;4978087;28;20035;-88
2024/02/17 04:22:10;;;;;;;10.60;9.00;;;13.00;83.00;;;;;;4979359;28;20554;-96
2024/02/17 04:24:36;;;;;;;11.48;8.68;;;13.00;83.60;;;;;;4959682;28;20484;-82
2024/02/17 04:27:01;;;;;;;12.25;9.90;;;13.00;83.00;;;;;;4956078;28;20129;-96
2024/02/17 04:29:27;;;;;;;11.88;9.13;;;13.00;83.00;;;;;;4955777;28;20034;-90
2024/02/17 04:31:54;;;;;;;11.45;9.38;;;13.00;83.00;;;;;;4973758;28;20033;-90
2024/02/17 04:34:19;;;;;;;11.27;9.05;;;12.90;83.00;;;;;;4959206;28;20066;-88
2024/02/17 04:37:10;;;;;;;12.02;9.50;;;13.00;83.00;;;;;;4973567;28;20065;-90
2024/02/17 04:39:40;;;;;;;10.95;8.60;;;13.00;83.00;;;;;;4980469;28;20027;-95
2024/02/17 04:42:06;;;;;;;10.65;8.55;;;12.90;83.00;;;;;;4976551;28;20486;-88
2024/02/17 04:44:33;;;;;;;10.93;9.05;;;12.90;83.00;;;;;;4965392;28;20516;-88
2024/02/17 04:47:20;;;;;;;11.73;9.02;;;12.90;83.00;;;;;;4955137;28;20039;-90
2024/02/17 04:49:46;;;;;;;11.75;9.00;;;12.90;83.00;;;;;;4923439;29;20074;-88
2024/02/17 04:52:14;;;;;;;11.20;8.68;;;12.90;83.00;;;;;;4930259;29;20035;-96
2024/02/17 04:54:41;;;;;;;10.80;8.73;;;12.90;83.60;;;;;;4925099;29;20174;-90
2024/02/17 04:57:07;;;;;;;10.15;8.43;;;12.90;83.00;;;;;;4921740;29;21274;-87
2024/02/17 04:59:33;;;;;;;10.85;8.60;;;12.90;83.00;;;;;;4934361;29;20523;-90
2024/02/17 05:02:02;;;;;;;11.73;8.85;;;12.90;83.00;;;;;;4938702;28;20054;-89
2024/02/17 05:04:28;;;;;;;11.80;9.02;;;12.90;83.00;;;;;;4920084;29;20039;-87
2024/02/17 05:06:55;;;;;;;11.40;9.07;;;12.90;83.00;;;;;;4936104;29;20035;-90
2024/02/17 05:09:44;;;;;;;10.90;9.10;;;12.90;83.00;;;;;;4920289;28;21277;-90
2024/02/17 05:12:12;;;;;;;10.52;8.45;;;12.90;83.00;;;;;;4921329;29;20101;-88
2024/02/17 05:14:38;;;;;;;11.25;8.95;;;12.90;83.00;;;;;;4901483;29;20060;-90
2024/02/17 05:17:08;;;;;;;10.13;8.68;;;12.90;83.00;;;;;;4918566;29;20093;-88
2024/02/17 05:19:35;;;;;;;11.70;9.05;;;12.90;83.00;;;;;;4917828;28;20067;-90
2024/02/17 05:22:06;;;;;;;10.82;8.93;;;12.90;83.00;;;;;;4949643;28;20128;-88
2024/02/17 05:24:31;;;;;;;10.55;8.77;;;12.90;83.00;;;;;;4941940;28;20058;-87
2024/02/17 05:26:57;;;;;;;10.75;8.48;;;12.90;83.00;;;;;;4941271;28;20038;-90
2024/02/17 05:29:23;;;;;;;10.07;8.65;;;12.90;83.00;;;;;;4936418;28;20030;-82
2024/02/17 05:31:57;;;;;;;10.45;8.57;;;12.90;83.00;;;;;;4940294;28;21390;-90
2024/02/17 05:34:56;;;;;;;12.07;9.15;;;12.90;83.00;;;;;;4941182;28;20487;-90
2024/02/17 05:37:22;;;;;;;10.88;8.38;;;12.90;83.00;;;;;;4943679;28;20081;-88
2024/02/17 05:40:07;;;;;;;10.25;8.70;;;12.80;83.00;;;;;;4937551;28;20031;-90
2024/02/17 05:42:36;;;;;;;11.35;8.45;;;12.90;83.00;;;;;;4959141;28;20163;-88
2024/02/17 05:45:02;;;;;;;11.15;8.55;;;12.90;83.00;;;;;;4953686;28;20403;-87
2024/02/17 05:47:34;;;;;;;10.50;8.90;;;12.80;83.00;;;;;;4958865;28;20034;-90
2024/02/17 05:50:02;;;;;;;11.85;9.13;;;12.90;83.10;;;;;;4953071;28;20046;-95
2024/02/17 05:52:38;;;;;;;12.02;9.52;;;12.80;83.00;;;;;;4956165;28;20046;-90
2024/02/17 05:55:06;;;;;;;10.52;9.13;;;12.90;83.10;;;;;;4943369;28;20033;-81
2024/02/17 05:57:32;;;;;;;10.27;8.40;;;12.80;83.00;;;;;;4948585;28;20030;-81
2024/02/17 05:59:57;;;;;;;12.07;9.52;;;12.80;83.00;;;;;;4953437;28;20547;-95
2024/02/17 06:02:23;;;;;;;10.43;8.50;;;12.80;83.00;;;;;;4959371;28;20073;-90
2024/02/17 06:04:49;;;;;;;11.55;9.23;;;12.80;83.00;;;;;;4954132;28;20050;-89
2024/02/17 06:07:16;;;;;;;9.85;8.48;;;12.80;83.00;;;;;;4968213;28;20134;-90
2024/02/17 06:09:41;;;;;;;10.32;8.38;;;12.80;83.00;;;;;;4953342;28;20023;-91
2024/02/17 06:12:07;;;;;;;11.43;9.35;;;12.80;83.00;;;;;;4955392;28;20029;-95
2024/02/17 06:14:33;;;;;;;10.32;9.10;;;12.80;83.00;;;;;;4954114;28;20439;-95
2024/02/17 06:17:05;;;;;;;10.77;8.93;;;12.80;83.00;;;;;;4955371;28;20038;-87
2024/02/17 06:22:47;;;;;;;9.83;7.90;;;12.80;83.00;;;;;;4971146;28;20077;-88
2024/02/17 06:25:18;;;;;;;10.07;8.73;;;12.80;83.00;;;;;;4952370;28;20030;-81
2024/02/17 06:27:44;;;;;;;11.10;9.13;;;12.80;83.00;;;;;;4950549;28;20033;-87
2024/02/17 06:30:15;;;;;;;10.88;8.57;;;12.80;83.00;;;;;;4955369;28;20478;-89
2024/02/17 06:32:43;;;;;;;10.25;8.45;;;12.80;83.70;;;;;;4952626;28;20039;-93
2024/02/17 06:35:09;;;;;;;9.90;8.77;;;12.80;83.00;;;;;;4954591;28;20035;-87
2024/02/17 06:37:35;;;;;;;10.15;8.73;;;12.80;83.00;;;;;;4973500;28;20048;-90
2024/02/17 06:40:02;;;;;;;10.48;8.60;;;12.80;83.10;;;;;;4972423;28;20546;-87
2024/02/17 06:42:28;;;;;;;10.88;8.70;;;12.80;83.10;;;;;;4970187;28;20129;-93
2024/02/17 06:44:54;;;;;;;10.07;7.80;;;12.80;83.00;;;;;;4971831;28;20047;-85
2024/02/17 06:47:20;;;;;;;10.45;8.27;;;12.80;83.00;;;;;;4953032;28;20034;-81
2024/02/17 06:49:46;;;;;;;10.73;8.60;;;12.80;83.10;;;;;;4951922;28;20073;-82
2024/02/17 06:52:12;;;;;;;9.98;8.57;;;12.70;83.00;;;;;;4950625;28;20035;-92
2024/02/17 06:54:37;;;;;;;10.13;8.45;;;12.80;83.10;;;;;;4971223;28;20035;-86
2024/02/17 06:57:05;;;;;;;9.63;7.80;;;12.70;83.00;;;;;;4955410;28;20054;-86
2024/02/17 06:59:32;;;;;;;9.48;8.48;;;12.80;83.10;;;;;;4957677;28;20027;-86
2024/02/17 07:01:58;;;;;;;9.65;8.30;;;12.80;83.00;;;;;;4953192;28;20031;-81
2024/02/17 07:04:24;;;;;;;9.30;7.95;;;12.70;83.00;;;;;;4946158;29;20514;-93
2024/02/17 07:06:51;;;;;;;9.23;7.85;;;12.80;83.00;;;;;;4957903;28;20041;-93
2024/02/17 07:09:20;;;;;;;11.05;8.73;;;12.70;83.00;;;;;;4973178;28;20142;-93
2024/02/17 07:11:49;;;;;;;10.18;8.88;;;12.80;83.00;;;;;;4957551;28;20121;-91
2024/02/17 07:14:15;;;;;;;9.65;8.18;;;12.70;83.00;;;;;;4949523;28;20066;-82
2024/02/17 07:16:41;;;;;;;9.23;8.13;;;12.70;83.10;;;;;;4953735;28;20065;-81
2024/02/17 07:19:07;;;;;;;11.20;8.43;;;12.70;83.00;;;;;;4955048;28;20058;-86
2024/02/17 07:21:34;;;;;;;11.00;8.43;;;12.70;83.00;;;;;;4947192;28;20498;-94
2024/02/17 07:24:22;;;;;;;9.55;7.97;;;12.70;83.00;;;;;;4953459;28;20384;-95
2024/02/17 07:26:50;;;;;;;10.45;8.02;;;12.70;83.00;;;;;;4923892;29;20043;-82
2024/02/17 07:29:16;;;;;;;9.55;8.23;;;12.70;83.00;;;;;;4935764;29;20423;-87
2024/02/17 07:31:43;;;;;;;10.05;8.35;;;12.70;83.00;;;;;;4916480;29;20024;-82
2024/02/17 07:34:11;;;;;;;10.07;8.20;;;12.70;83.00;;;;;;4914801;29;20380;-93
2024/02/17 07:36:37;;;;;;;9.45;8.23;;;12.70;83.00;;;;;;4935562;28;20415;-92
2024/02/17 07:39:03;;;;;;;9.93;7.90;;;12.70;83.00;;;;;;4935467;28;20039;-94
2024/02/17 07:41:29;;;;;;;9.60;8.10;;;12.70;83.00;;;;;;4918330;28;20039;-94
2024/02/17 07:43:55;;;;;;;9.73;8.05;;;12.70;83.00;;;;;;4933518;29;20107;-87
2024/02/17 07:46:21;;;;;;;9.07;7.43;;;12.70;83.00;;;;;;4920661;29;20031;-89
2024/02/17 07:48:47;;;;;;;10.13;8.10;;;12.70;83.00;;;;;;4936003;29;20046;-86
2024/02/17 07:51:13;;;;;;;9.80;8.10;;;12.70;83.00;;;;;;4938000;29;20195;-92
2024/02/17 07:53:40;;;;;;;9.35;7.95;;;12.70;83.00;;;;;;4921078;28;20039;-86
2024/02/17 07:56:06;;;;;;;10.20;7.97;;;12.70;83.00;;;;;;4940865;28;20114;-94
2024/02/17 07:58:32;;;;;;;9.30;7.85;;;12.70;83.00;;;;;;4922562;29;20031;-87
2024/02/17 08:00:59;;;;;;;9.80;8.38;;;12.70;83.00;;;;;;4931160;28;20507;-86
2024/02/17 08:03:31;;;;;;;8.82;7.63;;;12.70;83.00;;;;;;4959864;28;20031;-94
2024/02/17 08:05:56;;;;;;;9.93;8.20;;;12.70;83.10;;;;;;4951194;28;20018;-95
2024/02/17 08:08:28;;;;;;;8.85;7.68;;;12.70;83.00;;;;;;4972897;28;20033;-96
2024/02/17 08:10:55;;;;;;;8.90;7.63;;;12.70;83.00;;;;;;4968925;28;20023;-89
2024/02/17 08:13:22;;;;;;;8.32;7.43;;;12.70;83.00;;;;;;4957414;28;20126;-93
2024/02/17 08:15:48;;;;;;;8.65;7.75;;;12.70;83.00;;;;;;4963475;28;20030;-85
2024/02/17 08:18:14;;;;;;;10.48;8.18;;;12.70;83.10;;;;;;4972294;28;20027;-83
2024/02/17 08:20:39;;;;;;;9.63;8.23;;;12.70;83.00;;;;;;4954271;28;20387;-90
2024/02/17 08:23:05;;;;;;;9.30;7.78;;;12.70;83.00;;;;;;4972591;28;20237;-87
2024/02/17 08:25:31;;;;;;;8.88;7.63;;;12.70;83.00;;;;;;4972802;28;20042;-83
2024/02/17 08:27:57;;;;;;;8.80;7.45;;;12.70;83.00;;;;;;4950342;28;20031;-96
2024/02/17 08:30:23;;;;;;;10.23;8.00;;;12.70;83.00;;;;;;4946484;28;20027;-96
2024/02/17 08:32:50;;;;;;;8.75;7.47;;;12.70;83.00;;;;;;4968216;28;20455;-96
2024/02/17 08:35:16;;;;;;;9.38;7.85;;;12.70;83.00;;;;;;4978753;28;20034;-95
2024/02/17 08:37:43;;;;;;;9.80;7.72;;;12.70;83.00;;;;;;4950947;28;20114;-93
2024/02/17 08:40:10;;;;;;;10.77;7.75;;;12.70;83.00;;;;;;4944789;28;20057;-93
2024/02/17 08:42:36;;;;;;;9.60;7.65;;;12.70;83.00;;;;;;4967993;28;20126;-93
2024/02/17 08:45:01;;;;;;;9.70;8.30;;;12.70;83.00;;;;;;4969373;28;20047;-96
2024/02/17 08:47:27;;;;;;;9.82;7.97;;;12.80;83.10;;;;;;4977846;28;20028;-87
2024/02/17 08:49:53;;;;;;;9.27;7.60;;;12.80;83.00;;;;;;4975791;28;20026;-84
2024/02/17 08:52:19;;;;;;;9.27;8.02;;;12.80;83.00;;;;;;4948492;28;20561;-92
2024/02/17 08:54:47;;;;;;;11.13;8.85;;;12.80;83.00;;;;;;4969551;28;20526;-96
2024/02/17 08:57:13;;;;;;;8.70;7.32;;;12.80;83.00;;;;;;4972609;28;20015;-96
2024/02/17 08:59:38;;;;;;;9.10;7.90;;;12.80;83.00;;;;;;4963115;23;20074;-93
2024/02/17 09:02:16;;;;;;;9.05;7.45;;;12.80;83.10;;;;;;4933820;29;20044;-96
2024/02/17 09:04:43;;;;;;;10.20;8.00;;;12.80;83.00;;;;;;4936186;29;20253;-87
2024/02/17 09:07:09;;;;;;;9.23;7.43;;;12.80;83.00;;;;;;4922137;29;20035;-85
2024/02/17 09:09:35;;;;;;;9.75;7.95;;;12.80;83.00;;;;;;4910825;29;20087;-88
2024/02/17 09:12:05;;;;;;;9.68;7.95;;;12.80;83.00;;;;;;4910334;29;20016;-96
2024/02/17 09:14:33;;;;;;;8.43;7.45;;;12.90;83.10;;;;;;5001882;23;20059;-91
2024/02/17 09:17:00;;;;;;;9.40;8.40;;;12.90;83.10;;;;;;4958427;23;20003;-83
2024/02/17 09:19:26;;;;;;;10.57;8.05;;;12.90;83.10;;;;;;4944891;29;20178;-85
2024/02/17 09:21:53;;;;;;;9.95;8.63;;;12.90;83.10;;;;;;4916761;29;20030;-92
2024/02/17 09:24:25;;;;;;;9.63;8.27;;;12.90;83.00;;;;;;4916632;29;20480;-84
2024/02/17 09:27:04;;;;;;;10.65;8.65;;;12.90;83.00;;;;;;4944105;29;20031;-96
2024/02/17 09:29:31;;;;;;;10.40;8.23;;;13.00;83.00;;;;;;4946270;28;20039;-93
2024/02/17 09:31:57;;;;;;;9.35;7.70;;;12.90;83.00;;;;;;4939823;29;20043;-87
2024/02/17 09:34:26;;;;;;;9.80;8.63;;;13.00;83.00;;;;;;4938763;28;20050;-92
2024/02/17 09:36:52;;;;;;;9.43;8.38;;;13.00;83.10;;;;;;4939353;28;20027;-84
2024/02/17 09:39:17;;;;;;;10.68;8.57;;;13.00;83.10;;;;;;4925076;29;20119;-93
2024/02/17 09:41:43;;;;;;;9.95;8.15;;;13.00;83.00;;;;;;4924113;29;20019;-96
2024/02/17 09:44:10;;;;;;;10.85;9.07;;;13.00;83.00;;;;;;4949027;29;20027;-96
2024/02/17 09:46:37;;;;;;;10.27;8.32;;;13.00;83.00;;;;;;4943865;29;20086;-91
2024/02/17 09:49:04;;;;;;;8.70;7.80;;;13.10;83.00;;;;;;4946470;28;20023;-87
2024/02/17 09:51:31;;;;;;;10.63;8.55;;;13.10;83.00;;;;;;4940021;29;20207;-96
2024/02/17 09:53:57;;;;;;;9.70;7.85;;;13.10;83.00;;;;;;4927125;28;20074;-92
2024/02/17 09:56:27;;;;;;;9.57;8.27;;;13.10;83.00;;;;;;4939519;29;20023;-93
2024/02/17 09:58:53;;;;;;;9.68;8.15;;;13.20;83.00;;;;;;4918063;29;20034;-87
2024/02/17 10:01:26;;;;;;;12.25;8.80;;;13.10;82.90;;;;;;4926609;29;20015;-96
2024/02/17 10:03:53;;;;;;;10.15;8.60;;;13.10;82.90;;;;;;4950880;28;20023;-96
2024/02/17 10:06:19;;;;;;;10.13;8.18;;;13.20;82.90;;;;;;4941561;29;20023;-92
2024/02/17 10:08:46;;;;;;;10.02;8.30;;;13.20;82.90;;;;;;4917142;29;20612;-92
2024/02/17 10:11:12;;;;;;;9.75;8.52;;;13.20;82.90;;;;;;4914915;29;20031;-84
2024/02/17 10:13:41;;;;;;;10.32;8.60;;;13.30;82.90;;;;;;4917318;29;20031;-85
2024/02/17 10:16:11;;;;;;;10.85;8.88;;;13.20;82.90;;;;;;4911767;28;20456;-84
2024/02/17 10:18:41;;;;;;;10.70;8.88;;;13.30;82.90;;;;;;4939158;29;20054;-92
2024/02/17 10:21:08;;;;;;;9.95;8.60;;;13.30;82.90;;;;;;4931228;29;20028;-88
2024/02/17 10:23:34;;;;;;;9.68;8.43;;;13.30;82.90;;;;;;4929848;28;20121;-87
2024/02/17 10:26:01;;;;;;;9.75;8.52;;;13.30;82.80;;;;;;4939140;29;20035;-87
2024/02/17 10:28:29;;;;;;;9.40;8.00;;;13.30;82.80;;;;;;4937158;28;20031;-96
2024/02/17 10:31:00;;;;;;;9.85;8.02;;;13.40;82.80;;;;;;4926703;29;20082;-87
2024/02/17 10:33:27;;;;;;;12.90;9.15;;;13.40;82.80;;;;;;4937442;28;20171;-96
2024/02/17 10:35:56;;;;;;;10.55;8.48;;;13.40;82.80;;;;;;4946717;29;20301;-84
2024/02/17 10:38:24;;;;;;;10.00;8.43;;;13.40;82.80;;;;;;4926764;28;20027;-96
2024/02/17 10:40:52;;;;;;;10.45;8.32;;;13.40;82.80;;;;;;4953855;29;20435;-96
2024/02/17 10:43:18;;;;;;;9.70;8.43;;;13.50;82.80;;;;;;4935548;29;20087;-96
2024/02/17 10:45:53;;;;;;;9.93;8.15;;;13.50;82.80;;;;;;4927648;29;20023;-96
2024/02/17 10:48:19;;;;;;;;;;;13.60;82.80;;;;;;4940902;28;20027;-96
2024/02/17 10:50:46;;;;;;;10.27;7.43;;;13.50;82.70;;;;;;4925552;28;19918;-96
2024/02/17 10:53:21;;;;;;;10.48;8.20;;;13.50;82.60;;;;;;4942061;29;20074;-87
2024/02/17 10:56:14;;;;;;;9.65;7.50;;;13.60;83.40;;;;;;4941558;29;20028;-87
2024/02/17 10:58:41;;;;;;;10.55;7.93;;;13.60;82.70;;;;;;4880575;29;20496;-83
2024/02/17 11:01:09;;;;;;;10.10;8.10;;;13.60;82.70;;;;;;4915666;29;20032;-84
2024/02/17 11:03:46;;;;;;;10.45;8.40;;;13.60;82.70;;;;;;4889477;29;20044;-84
2024/02/17 11:06:15;;;;;;;9.52;8.18;;;13.70;82.70;;;;;;4890770;29;20032;-87
2024/02/17 11:08:41;;;;;;;9.70;8.13;;;13.70;82.70;;;;;;4882882;29;20044;-87
2024/02/17 11:11:36;;;;;;;9.68;7.70;;;13.70;82.60;;;;;;4897400;29;20024;-92
2024/02/17 11:14:40;;;;;;;9.35;7.85;;;13.80;82.70;;;;;;4875975;29;20060;-93
2024/02/17 11:17:10;;;;;;;9.07;7.38;;;13.80;82.60;;;;;;4872876;29;20037;-93
2024/02/17 11:19:37;;;;;;;9.93;8.13;;;13.80;82.60;;;;;;4911364;29;20068;-91
2024/02/17 11:22:06;;;;;;;11.13;8.57;;;13.80;82.60;;;;;;4884628;29;20116;-87
2024/02/17 11:24:35;;;;;;;11.48;8.82;;;13.80;82.60;;;;;;4887263;29;20044;-96
2024/02/17 11:27:04;;;;;;;10.90;8.25;;;13.80;82.60;;;;;;4878893;29;20055;-96
2024/02/17 11:29:33;;;;;;;9.75;7.95;;;13.90;82.60;;;;;;4935038;28;20046;-83
2024/02/17 11:32:18;;;;;;;10.32;8.20;;;13.90;82.60;;;;;;4922209;29;20102;-96
2024/02/17 11:34:45;;;;;;;10.40;8.48;;;13.90;82.60;;;;;;4884316;29;20043;-84
2024/02/17 11:37:16;;;;;;;9.60;7.57;;;13.90;82.50;;;;;;4903795;29;20028;-83
2024/02/17 11:39:44;;;;;;;9.75;7.65;;;14.00;82.60;;;;;;4890278;29;20058;-91
2024/02/17 11:42:10;;;;;;;9.57;7.85;;;14.00;82.50;;;;;;4883354;29;20036;-92
2024/02/17 11:44:38;;;;;;;9.40;7.78;;;14.00;82.50;;;;;;4898016;29;20048;-91
2024/02/17 11:47:08;;;;;;;10.35;8.30;;;14.10;82.60;;;;;;4891822;29;20062;-87
2024/02/17 11:49:34;;;;;;;9.43;8.07;;;14.10;82.50;;;;;;4895979;29;21186;-87
2024/02/17 11:52:00;;;;;;;9.45;7.93;;;14.10;82.50;;;;;;4898568;29;20060;-83
2024/02/17 11:54:26;;;;;;;9.13;7.93;;;14.10;82.50;;;;;;4896964;29;20059;-87
2024/02/17 11:56:52;;;;;;;9.93;7.53;;;14.10;82.40;;;;;;4888056;29;20036;-96
2024/02/17 11:59:20;;;;;;;8.27;7.22;;;14.20;82.50;;;;;;4892765;29;20087;-84
2024/02/17 12:02:06;;;;;;;9.80;7.65;;;14.20;82.40;;;;;;4901572;29;20033;-93
2024/02/17 12:04:37;;;;;;;10.48;7.32;;;14.20;82.40;;;;;;4869265;29;20105;-87
2024/02/17 12:07:03;;;;;;;9.98;7.95;;;14.20;82.40;;;;;;4907034;29;20037;-87
2024/02/17 12:09:30;;;;;;;9.20;7.95;;;14.20;82.40;;;;;;4905307;29;20183;-85
2024/02/17 12:11:56;;;;;;;10.35;8.15;;;14.30;82.40;;;;;;4932590;23;20046;-85
2024/02/17 12:14:24;;;;;;;9.10;7.82;;;14.30;82.40;;;;;;4933669;28;20044;-94
2024/02/17 12:16:50;;;;;;;9.65;7.80;;;14.20;82.40;;;;;;4947487;28;20125;-84
2024/02/17 12:19:16;;;;;;;10.18;7.97;;;14.30;82.40;;;;;;4970149;28;20067;-87
2024/02/17 12:21:44;;;;;;;10.82;8.10;;;14.30;82.40;;;;;;4935731;29;20054;-86
2024/02/17 12:24:10;;;;;;;9.73;8.07;;;14.40;82.50;;;;;;4935708;28;20032;-95
2024/02/17 12:26:40;;;;;;;9.05;7.57;;;14.30;82.40;;;;;;4946573;28;20026;-96
2024/02/17 12:29:06;;;;;;;9.75;7.85;;;14.40;82.40;;;;;;4947708;28;20019;-95
2024/02/17 12:31:33;;;;;;;10.07;8.02;;;14.40;82.40;;;;;;4940286;28;20034;-87
2024/02/17 12:33:59;;;;;;;9.45;7.97;;;14.40;82.40;;;;;;4955482;28;20036;-85
2024/02/17 12:36:37;;;;;;;9.48;7.88;;;14.40;82.40;;;;;;5304683;23;20047;-96
2024/02/17 12:39:06;;;;;;;10.05;7.80;;;14.40;82.40;;;;;;4923135;29;20044;-95
2024/02/17 12:41:32;;;;;;;9.43;7.78;;;14.40;82.40;;;;;;5023153;23;20048;-86
2024/02/17 12:43:58;;;;;;;10.13;7.78;;;14.40;82.40;;;;;;4936584;29;20116;-84
2024/02/17 12:46:28;;;;;;;10.25;8.02;;;14.40;82.40;;;;;;4934720;29;20080;-84
2024/02/17 12:51:48;;;;;;;9.57;7.55;;;14.50;82.40;;;;;;5575267;23;20046;-93
2024/02/17 12:54:18;;;;;;;10.00;7.60;;;14.50;82.30;;;;;;4943777;28;20035;-92